NOZ1550 ENGM-LHBP
Flight info
| Callsign | NOZ1550 |
|---|---|
| Flight time | N/A |
| Altitude | 35000 |
| Route | OKSAT L996 GETPA/N0462F350 L996 KELIN DCT POKEN Z491 XELOL DCT VAGON DCT REGLI DCT REVMA DCT EDEMU |
| Aircraft | B738/M-SDE2E3FGHIRWXY/LB1 |
Departure
| Time | 2026-05-06 08:59 |
|---|---|
| Airport | Oslo-Gardermoen International Airport (ENGM) |
Arrival
| Time | N/A |
|---|---|
| Airport | Budapest Liszt Ferenc International Airport (LHBP) |
| Time | Latitude | Longitude | Altitude | Speed | Heading |
|---|---|---|---|---|---|
| 2026-05-06 08:37 | 60.19640 | 11.10211 | 687 ft | 0 kts | 286° |
| 2026-05-06 08:48 | 60.19640 | 11.10213 | 687 ft | 1 kts | 286° |
| 2026-05-06 08:48 | 60.19635 | 11.10241 | 687 ft | 2 kts | 286° |
| 2026-05-06 08:49 | 60.19631 | 11.10270 | 687 ft | 2 kts | 286° |
| 2026-05-06 08:49 | 60.19627 | 11.10299 | 687 ft | 2 kts | 286° |
| 2026-05-06 08:49 | 60.19623 | 11.10328 | 687 ft | 2 kts | 286° |
| 2026-05-06 08:49 | 60.19621 | 11.10339 | 687 ft | 0 kts | 286° |
| 2026-05-06 08:51 | 60.19623 | 11.10332 | 687 ft | 2 kts | 296° |
| 2026-05-06 08:51 | 60.19647 | 11.10330 | 687 ft | 6 kts | 30° |
| 2026-05-06 08:52 | 60.19687 | 11.10418 | 687 ft | 10 kts | 50° |
| 2026-05-06 08:52 | 60.19750 | 11.10499 | 687 ft | 12 kts | 14° |
| 2026-05-06 08:52 | 60.19841 | 11.10548 | 687 ft | 14 kts | 15° |
| 2026-05-06 08:52 | 60.19911 | 11.10436 | 687 ft | 16 kts | 285° |
| 2026-05-06 08:53 | 60.19944 | 11.10206 | 687 ft | 18 kts | 286° |
| 2026-05-06 08:53 | 60.19982 | 11.09939 | 687 ft | 20 kts | 286° |
| 2026-05-06 08:53 | 60.20022 | 11.09658 | 687 ft | 20 kts | 286° |
| 2026-05-06 08:53 | 60.20061 | 11.09388 | 687 ft | 20 kts | 285° |
| 2026-05-06 08:54 | 60.20099 | 11.09122 | 687 ft | 19 kts | 286° |
| 2026-05-06 08:54 | 60.20112 | 11.08877 | 687 ft | 17 kts | 224° |
| 2026-05-06 08:54 | 60.20002 | 11.08804 | 687 ft | 16 kts | 196° |
| 2026-05-06 08:54 | 60.19883 | 11.08735 | 687 ft | 19 kts | 195° |
| 2026-05-06 08:55 | 60.19748 | 11.08658 | 687 ft | 21 kts | 196° |
| 2026-05-06 08:55 | 60.19600 | 11.08572 | 687 ft | 23 kts | 196° |
| 2026-05-06 08:55 | 60.19435 | 11.08476 | 687 ft | 25 kts | 196° |
| 2026-05-06 08:55 | 60.19257 | 11.08375 | 687 ft | 27 kts | 195° |
| 2026-05-06 08:56 | 60.19073 | 11.08268 | 687 ft | 26 kts | 196° |
| 2026-05-06 08:56 | 60.18899 | 11.08168 | 687 ft | 25 kts | 196° |
| 2026-05-06 08:56 | 60.18728 | 11.08069 | 687 ft | 25 kts | 196° |
| 2026-05-06 08:56 | 60.18559 | 11.07971 | 687 ft | 25 kts | 195° |
| 2026-05-06 08:57 | 60.18400 | 11.07880 | 687 ft | 17 kts | 196° |
| 2026-05-06 08:57 | 60.18354 | 11.07718 | 687 ft | 14 kts | 289° |
| 2026-05-06 08:57 | 60.18427 | 11.07587 | 687 ft | 14 kts | 325° |
| 2026-05-06 08:57 | 60.18507 | 11.07475 | 687 ft | 14 kts | 324° |
| 2026-05-06 08:58 | 60.18595 | 11.07428 | 687 ft | 13 kts | 16° |
| 2026-05-06 08:58 | 60.18691 | 11.07483 | 687 ft | 17 kts | 16° |
| 2026-05-06 08:58 | 60.19014 | 11.07671 | 687 ft | 80 kts | 16° |
| 2026-05-06 08:58 | 60.19733 | 11.08085 | 687 ft | 135 kts | 15° |
| 2026-05-06 08:59 | 60.20798 | 11.08702 | 746 ft | 173 kts | 16° |
| 2026-05-06 08:59 | 60.21927 | 11.09324 | 1312 ft | 176 kts | 14° |
| 2026-05-06 08:59 | 60.23119 | 11.09968 | 1956 ft | 180 kts | 16° |
| 2026-05-06 08:59 | 60.24334 | 11.10719 | 2475 ft | 188 kts | 18° |
| 2026-05-06 09:00 | 60.25609 | 11.11427 | 2886 ft | 199 kts | 7° |
| 2026-05-06 09:00 | 60.27057 | 11.11301 | 3219 ft | 217 kts | 349° |
| 2026-05-06 09:00 | 60.28569 | 11.10723 | 3653 ft | 231 kts | 348° |
| 2026-05-06 09:00 | 60.30210 | 11.10342 | 4069 ft | 247 kts | 4° |
| 2026-05-06 09:01 | 60.31862 | 11.11523 | 4514 ft | 261 kts | 37° |
| 2026-05-06 09:01 | 60.33021 | 11.14322 | 5095 ft | 268 kts | 65° |
| 2026-05-06 09:01 | 60.33507 | 11.17951 | 5773 ft | 271 kts | 86° |
| 2026-05-06 09:01 | 60.33418 | 11.21691 | 6438 ft | 273 kts | 101° |
| 2026-05-06 09:02 | 60.33084 | 11.25452 | 7084 ft | 278 kts | 96° |
| 2026-05-06 09:02 | 60.32834 | 11.29348 | 7750 ft | 280 kts | 109° |
| 2026-05-06 09:02 | 60.31829 | 11.32627 | 8388 ft | 280 kts | 141° |
| 2026-05-06 09:02 | 60.30135 | 11.34334 | 9050 ft | 276 kts | 172° |
| 2026-05-06 09:03 | 60.28262 | 11.34608 | 9734 ft | 275 kts | 181° |
| 2026-05-06 09:03 | 60.26326 | 11.34871 | 10318 ft | 283 kts | 174° |
| 2026-05-06 09:03 | 60.24357 | 11.35706 | 10671 ft | 300 kts | 167° |
| 2026-05-06 09:03 | 60.22313 | 11.37008 | 11004 ft | 317 kts | 164° |
| 2026-05-06 09:04 | 60.20193 | 11.38546 | 11304 ft | 333 kts | 163° |
| 2026-05-06 09:04 | 60.17990 | 11.40188 | 11629 ft | 348 kts | 163° |
| 2026-05-06 09:04 | 60.15662 | 11.41908 | 11925 ft | 364 kts | 163° |
| 2026-05-06 09:04 | 60.13238 | 11.43669 | 12306 ft | 377 kts | 163° |
| 2026-05-06 09:05 | 60.10789 | 11.45432 | 12910 ft | 383 kts | 164° |
| 2026-05-06 09:05 | 60.08251 | 11.47247 | 13511 ft | 389 kts | 165° |
| 2026-05-06 09:05 | 60.05718 | 11.49049 | 14195 ft | 393 kts | 165° |
| 2026-05-06 09:05 | 60.03148 | 11.50873 | 14862 ft | 398 kts | 165° |
| 2026-05-06 09:06 | 60.00522 | 11.52731 | 15471 ft | 405 kts | 166° |
| 2026-05-06 09:06 | 59.97855 | 11.54615 | 16185 ft | 409 kts | 166° |
| 2026-05-06 09:06 | 59.95192 | 11.56494 | 16808 ft | 414 kts | 166° |
| 2026-05-06 09:06 | 59.92463 | 11.58417 | 17486 ft | 418 kts | 167° |
| 2026-05-06 09:07 | 59.89706 | 11.60356 | 18136 ft | 423 kts | 167° |
| 2026-05-06 09:07 | 59.86941 | 11.62296 | 18740 ft | 428 kts | 167° |
| 2026-05-06 09:07 | 59.84139 | 11.64260 | 19452 ft | 429 kts | 167° |
| 2026-05-06 09:07 | 59.82572 | 11.65358 | 19823 ft | 431 kts | 168° |
| 2026-05-06 09:08 | 59.79751 | 11.67334 | 20547 ft | 431 kts | 168° |
| 2026-05-06 09:08 | 59.76955 | 11.69288 | 21168 ft | 432 kts | 168° |
| 2026-05-06 09:08 | 59.74100 | 11.71279 | 21827 ft | 434 kts | 168° |
| 2026-05-06 09:08 | 59.71274 | 11.73244 | 22408 ft | 436 kts | 169° |
| 2026-05-06 09:09 | 59.68397 | 11.75239 | 22944 ft | 439 kts | 169° |
| 2026-05-06 09:09 | 59.65507 | 11.77237 | 23474 ft | 442 kts | 169° |
| 2026-05-06 09:09 | 59.62616 | 11.79192 | 24055 ft | 442 kts | 170° |
| 2026-05-06 09:09 | 59.59718 | 11.80973 | 24555 ft | 444 kts | 172° |
| 2026-05-06 09:10 | 59.56731 | 11.82667 | 25040 ft | 446 kts | 173° |
| 2026-05-06 09:10 | 59.53765 | 11.84292 | 25608 ft | 447 kts | 173° |
| 2026-05-06 09:10 | 59.50795 | 11.85906 | 26163 ft | 447 kts | 173° |
| 2026-05-06 09:10 | 59.47799 | 11.87533 | 26595 ft | 451 kts | 173° |
| 2026-05-06 09:11 | 59.44780 | 11.89178 | 27062 ft | 453 kts | 173° |
| 2026-05-06 09:11 | 59.41740 | 11.90844 | 27456 ft | 456 kts | 173° |
| 2026-05-06 09:11 | 59.38732 | 11.92464 | 28165 ft | 450 kts | 174° |
| 2026-05-06 09:11 | 59.35699 | 11.93816 | 28912 ft | 440 kts | 178° |
| 2026-05-06 09:12 | 59.32728 | 11.94678 | 29639 ft | 429 kts | 182° |
| 2026-05-06 09:12 | 59.29812 | 11.95076 | 30265 ft | 420 kts | 187° |
| 2026-05-06 09:12 | 59.26893 | 11.95111 | 30749 ft | 416 kts | 189° |
| 2026-05-06 09:12 | 59.23972 | 11.94919 | 31288 ft | 411 kts | 191° |
| 2026-05-06 09:13 | 59.21081 | 11.94619 | 31672 ft | 411 kts | 191° |
| 2026-05-06 09:13 | 59.18177 | 11.94271 | 31955 ft | 413 kts | 191° |
| 2026-05-06 09:13 | 59.15291 | 11.93917 | 32305 ft | 414 kts | 192° |
| 2026-05-06 09:13 | 59.12386 | 11.93566 | 32658 ft | 415 kts | 191° |
| 2026-05-06 09:14 | 59.09473 | 11.93229 | 33089 ft | 413 kts | 191° |
| 2026-05-06 09:14 | 59.06615 | 11.92905 | 33462 ft | 412 kts | 191° |
| 2026-05-06 09:14 | 59.03750 | 11.92588 | 33872 ft | 410 kts | 191° |
| 2026-05-06 09:14 | 59.00917 | 11.92281 | 34202 ft | 409 kts | 191° |
| 2026-05-06 09:15 | 58.98041 | 11.91968 | 34488 ft | 409 kts | 191° |
| 2026-05-06 09:15 | 58.95222 | 11.91660 | 34713 ft | 410 kts | 191° |
| 2026-05-06 09:15 | 58.92353 | 11.91343 | 34879 ft | 411 kts | 191° |
| 2026-05-06 09:16 | 58.86597 | 11.90713 | 34930 ft | 413 kts | 190° |
| 2026-05-06 09:16 | 58.80893 | 11.90412 | 34929 ft | 416 kts | 185° |
| 2026-05-06 09:17 | 58.75048 | 11.91509 | 34933 ft | 422 kts | 180° |
| 2026-05-06 09:17 | 58.69230 | 11.93159 | 34920 ft | 421 kts | 179° |
| 2026-05-06 09:18 | 58.63453 | 11.94837 | 34925 ft | 423 kts | 180° |
| 2026-05-06 09:18 | 58.57654 | 11.96468 | 34927 ft | 421 kts | 180° |
| 2026-05-06 09:19 | 58.51872 | 11.98049 | 34921 ft | 421 kts | 180° |
| 2026-05-06 09:19 | 58.46079 | 11.99615 | 34942 ft | 420 kts | 180° |
| 2026-05-06 09:20 | 58.40323 | 12.01161 | 34947 ft | 420 kts | 180° |
| 2026-05-06 09:20 | 58.34539 | 12.02701 | 34945 ft | 419 kts | 180° |
| 2026-05-06 09:21 | 58.28761 | 12.04256 | 34958 ft | 418 kts | 179° |
| 2026-05-06 09:21 | 58.23042 | 12.06669 | 34936 ft | 428 kts | 171° |
| 2026-05-06 09:22 | 58.17437 | 12.10619 | 34955 ft | 432 kts | 166° |
| 2026-05-06 09:22 | 58.11946 | 12.15089 | 34946 ft | 432 kts | 165° |
| 2026-05-06 09:23 | 58.06444 | 12.19662 | 34931 ft | 433 kts | 165° |
| 2026-05-06 09:23 | 58.00917 | 12.24176 | 34933 ft | 432 kts | 165° |
| 2026-05-06 09:24 | 57.95410 | 12.28607 | 34930 ft | 430 kts | 165° |